createdAt,value
2023-02-25T00:02:07.653Z,99378.19
2023-02-25T00:04:36.241Z,99390.81
2023-02-25T00:07:05.262Z,99382.81
2023-02-25T00:09:33.122Z,99373.78
2023-02-25T00:12:02.493Z,99386.81
2023-02-25T00:14:30.335Z,99387.16
2023-02-25T00:16:58.320Z,99387.56
2023-02-25T00:19:27.692Z,99393.72
2023-02-25T00:21:55.667Z,99375.75
2023-02-25T00:24:23.656Z,99388.69
2023-02-25T00:26:51.714Z,99379.03
2023-02-25T00:29:22.179Z,99389.91
2023-02-25T00:31:50.445Z,99379.31
2023-02-25T00:34:18.703Z,99385.50
2023-02-25T00:36:46.697Z,99396.09
2023-02-25T00:39:15.111Z,99394.19
2023-02-25T00:41:43.160Z,99412.09
2023-02-25T00:44:11.412Z,99410.00
2023-02-25T00:46:40.631Z,99406.50
2023-02-25T00:49:09.993Z,99411.31
2023-02-25T00:51:39.664Z,99416.56
2023-02-25T00:54:07.477Z,99409.75
2023-02-25T00:56:36.258Z,99418.06
2023-02-25T00:59:04.327Z,99426.19
2023-02-25T01:01:38.069Z,99433.47
2023-02-25T01:04:10.377Z,99435.34
2023-02-25T01:06:39.914Z,99445.16
2023-02-25T01:09:13.929Z,99448.41
2023-02-25T01:11:45.563Z,99441.47
2023-02-25T01:14:17.633Z,99437.38
2023-02-25T01:16:46.424Z,99432.13
2023-02-25T01:19:24.743Z,99445.53
2023-02-25T01:21:54.461Z,99443.63
2023-02-25T01:24:24.048Z,99447.38
2023-02-25T01:26:57.001Z,99444.28
2023-02-25T01:29:27.220Z,99444.47
2023-02-25T01:31:56.917Z,99444.00
2023-02-25T01:34:26.974Z,99445.72
2023-02-25T01:36:54.718Z,99450.78
2023-02-25T01:39:26.283Z,99449.97
2023-02-25T01:41:55.555Z,99461.22
2023-02-25T01:44:25.532Z,99463.88
2023-02-25T01:46:54.933Z,99460.97
2023-02-25T01:49:28.923Z,99466.63
2023-02-25T01:52:03.792Z,99454.53
2023-02-25T01:54:33.216Z,99476.34
2023-02-25T01:57:01.167Z,99459.06
2023-02-25T01:59:30.819Z,99471.75
2023-02-25T02:01:59.293Z,99474.59
2023-02-25T02:04:27.884Z,99470.38
2023-02-25T02:06:56.930Z,99469.78
2023-02-25T02:09:29.993Z,99483.44
2023-02-25T02:11:59.169Z,99484.91
2023-02-25T02:14:30.784Z,99480.97
2023-02-25T02:17:12.911Z,99482.47
2023-02-25T02:20:01.160Z,99495.06
2023-02-25T02:22:35.756Z,99494.75
2023-02-25T02:25:28.945Z,99492.38
2023-02-25T02:28:24.320Z,99493.09
2023-02-25T02:31:11.099Z,99503.19
2023-02-25T02:33:47.549Z,99502.63
2023-02-25T02:36:24.847Z,99506.31
2023-02-25T02:39:13.154Z,99518.44
2023-02-25T02:41:48.195Z,99512.47
2023-02-25T02:44:23.328Z,99514.69
2023-02-25T02:46:55.092Z,99517.41
2023-02-25T02:49:31.346Z,99524.06
2023-02-25T02:52:02.975Z,99516.69
2023-02-25T02:54:34.187Z,99527.25
2023-02-25T02:57:04.139Z,99524.66
2023-02-25T02:59:35.672Z,99523.81
2023-02-25T03:02:09.318Z,99535.47
2023-02-25T03:04:42.822Z,99526.41
2023-02-25T03:07:14.272Z,99538.28
2023-02-25T03:09:48.148Z,99530.34
2023-02-25T03:12:16.155Z,99531.63
2023-02-25T03:14:43.965Z,99529.09
2023-02-25T03:17:16.699Z,99531.53
2023-02-25T03:19:51.844Z,99544.75
2023-02-25T03:22:27.772Z,99541.22
2023-02-25T03:25:01.999Z,99544.66
2023-02-25T03:27:34.324Z,99545.06
2023-02-25T03:30:12.504Z,99551.63
2023-02-25T03:32:43.726Z,99567.50
2023-02-25T03:35:16.096Z,99557.81
2023-02-25T03:37:49.405Z,99555.00
2023-02-25T03:40:20.900Z,99575.81
2023-02-25T03:42:59.740Z,99570.63
2023-02-25T03:45:28.276Z,99573.81
2023-02-25T03:48:00.119Z,99579.09
2023-02-25T03:50:33.860Z,99597.78
2023-02-25T03:53:05.090Z,99591.91
2023-02-25T03:55:54.180Z,99588.34
2023-02-25T03:58:22.198Z,99587.88
2023-02-25T04:00:55.710Z,99582.50
2023-02-25T04:03:25.872Z,99594.00
2023-02-25T04:05:55.540Z,99604.97
2023-02-25T04:08:23.608Z,99587.56
2023-02-25T04:10:52.313Z,99600.38
2023-02-25T04:13:22.422Z,99598.69
2023-02-25T04:15:51.795Z,99607.75
2023-02-25T04:18:20.508Z,99600.97
2023-02-25T04:20:48.555Z,99615.59
2023-02-25T04:23:17.839Z,99627.16
2023-02-25T04:25:45.963Z,99634.25
2023-02-25T04:28:13.750Z,99641.66
2023-02-25T04:30:41.639Z,99645.91
2023-02-25T04:33:10.923Z,99647.81
2023-02-25T04:35:38.869Z,99647.19
2023-02-25T04:38:09.136Z,99643.03
2023-02-25T04:40:38.472Z,99648.13
2023-02-25T04:43:06.288Z,99647.28
2023-02-25T04:45:34.341Z,99641.00
2023-02-25T04:48:02.163Z,99643.41
2023-02-25T04:50:30.047Z,99643.03
2023-02-25T04:53:00.199Z,99649.34
2023-02-25T04:55:28.201Z,99645.97
2023-02-25T04:57:57.889Z,99644.16
2023-02-25T05:00:27.719Z,99641.88
2023-02-25T05:02:55.501Z,99646.53
2023-02-25T05:05:23.292Z,99641.25
2023-02-25T05:07:51.152Z,99634.09
2023-02-25T05:10:19.031Z,99627.00
2023-02-25T05:12:46.928Z,99647.59
2023-02-25T05:15:16.202Z,99634.53
2023-02-25T05:17:44.037Z,99650.78
2023-02-25T05:20:13.110Z,99642.00
2023-02-25T05:22:41.620Z,99646.22
2023-02-25T05:25:10.465Z,99644.63
2023-02-25T05:27:38.302Z,99661.38
2023-02-25T05:30:07.203Z,99636.19
2023-02-25T05:32:36.446Z,99647.69
2023-02-25T05:35:04.607Z,99655.19
2023-02-25T05:37:32.848Z,99666.94
2023-02-25T05:40:01.258Z,99665.22
2023-02-25T05:42:29.082Z,99671.97
2023-02-25T05:44:56.953Z,99671.34
2023-02-25T05:47:24.763Z,99667.13
2023-02-25T05:49:53.910Z,99684.50
2023-02-25T05:52:21.684Z,99679.50
2023-02-25T05:54:49.662Z,99691.31
2023-02-25T05:57:17.658Z,99709.97
2023-02-25T05:59:45.744Z,99711.41
2023-02-25T06:02:13.601Z,99711.44
2023-02-25T06:04:41.518Z,99726.25
2023-02-25T06:07:10.657Z,99726.25
2023-02-25T06:09:39.900Z,99732.25
2023-02-25T06:12:08.120Z,99738.28
2023-02-25T06:14:36.107Z,99738.38
2023-02-25T06:17:03.980Z,99748.16
2023-02-25T06:19:31.773Z,99757.25
2023-02-25T06:21:59.542Z,99763.84
2023-02-25T06:24:28.617Z,99767.09
2023-02-25T06:26:56.348Z,99771.38
2023-02-25T06:29:24.376Z,99764.97
2023-02-25T06:31:52.326Z,99778.56
2023-02-25T06:34:20.213Z,99787.84
2023-02-25T06:36:48.046Z,99781.19
2023-02-25T06:39:15.781Z,99782.72
2023-02-25T06:41:45.247Z,99795.75
2023-02-25T06:44:15.517Z,99799.25
2023-02-25T06:46:43.580Z,99792.91
2023-02-25T06:49:12.473Z,99799.69
2023-02-25T06:51:40.459Z,99803.59
2023-02-25T06:54:08.333Z,99806.69
2023-02-25T06:56:36.124Z,99808.38
2023-02-25T06:59:05.322Z,99808.16
2023-02-25T07:01:33.331Z,99813.34
2023-02-25T07:04:01.328Z,99825.25
2023-02-25T07:06:29.355Z,99825.91
2023-02-25T07:08:57.322Z,99832.00
2023-02-25T07:11:31.474Z,99830.22
2023-02-25T07:13:59.306Z,99828.88
2023-02-25T07:16:29.911Z,99842.13
2023-02-25T07:18:58.274Z,99840.69
2023-02-25T07:21:29.304Z,99840.59
2023-02-25T07:23:57.904Z,99859.88
2023-02-25T07:26:28.277Z,99843.59
2023-02-25T07:28:57.381Z,99851.41
2023-02-25T07:31:26.509Z,99857.38
2023-02-25T07:33:57.029Z,99859.59
2023-02-25T07:36:27.511Z,99855.16
2023-02-25T07:38:55.308Z,99872.94
2023-02-25T07:41:23.401Z,99857.84
2023-02-25T07:43:52.367Z,99868.94
2023-02-25T07:46:20.285Z,99872.72
2023-02-25T07:48:48.388Z,99875.34
2023-02-25T07:51:19.453Z,99881.28
2023-02-25T07:53:47.666Z,99885.94
2023-02-25T07:56:16.595Z,99888.34
2023-02-25T07:58:44.683Z,99876.50
2023-02-25T08:01:19.568Z,99881.59
2023-02-25T08:03:47.939Z,99891.59
2023-02-25T08:06:17.405Z,99877.78
2023-02-25T08:08:45.481Z,99878.44
2023-02-25T08:11:15.682Z,99893.50
2023-02-25T08:13:43.671Z,99877.69
2023-02-25T08:16:14.050Z,99891.41
2023-02-25T08:18:43.511Z,99893.75
2023-02-25T08:21:14.528Z,99878.41
2023-02-25T08:23:44.066Z,99885.88
2023-02-25T08:26:12.035Z,99890.66
2023-02-25T08:28:40.065Z,99906.66
2023-02-25T08:31:11.369Z,99902.81
2023-02-25T08:33:40.768Z,99911.88
2023-02-25T08:36:10.485Z,99906.75
2023-02-25T08:38:38.756Z,99903.56
2023-02-25T08:41:09.434Z,99906.16
2023-02-25T08:43:38.289Z,99912.88
2023-02-25T08:46:07.326Z,99915.25
2023-02-25T08:48:36.041Z,99902.81
2023-02-25T08:51:08.225Z,99903.94
2023-02-25T08:53:37.045Z,99914.19
2023-02-25T08:56:05.681Z,99920.00
2023-02-25T08:58:35.003Z,99919.22
2023-02-25T09:01:03.896Z,99915.38
2023-02-25T09:03:31.912Z,99921.00
2023-02-25T09:05:59.749Z,99928.16
2023-02-25T09:08:28.418Z,99936.69
2023-02-25T09:10:56.386Z,99927.16
2023-02-25T09:13:24.422Z,99937.13
2023-02-25T09:15:58.570Z,99964.44
2023-02-25T09:18:27.188Z,99949.91
2023-02-25T09:20:56.724Z,99949.59
2023-02-25T09:23:24.613Z,99940.91
2023-02-25T09:25:52.533Z,99957.66
2023-02-25T09:28:21.998Z,99966.56
2023-02-25T09:30:55.202Z,99975.38
2023-02-25T09:33:24.682Z,99972.16
2023-02-25T09:35:54.632Z,99977.81
2023-02-25T09:38:22.502Z,99987.00
2023-02-25T09:40:50.728Z,99987.03
2023-02-25T09:43:26.259Z,99993.69
2023-02-25T09:45:55.492Z,100002.09
2023-02-25T09:48:30.482Z,99988.75
2023-02-25T09:51:04.861Z,99996.19
2023-02-25T09:53:37.341Z,100015.13
2023-02-25T09:56:07.746Z,100031.25
2023-02-25T09:58:42.726Z,100041.56
2023-02-25T10:01:21.577Z,100040.66
2023-02-25T10:03:58.411Z,100039.44
2023-02-25T10:06:32.694Z,100037.47
2023-02-25T10:09:10.284Z,100045.47
2023-02-25T10:11:47.487Z,100038.84
2023-02-25T10:14:32.737Z,100051.03
2023-02-25T10:17:09.952Z,100045.69
2023-02-25T10:19:49.491Z,100059.25
2023-02-25T10:22:34.376Z,100068.84
2023-02-25T10:25:11.855Z,100069.81
2023-02-25T10:27:46.447Z,100060.44
2023-02-25T10:30:18.210Z,100059.91
2023-02-25T10:32:47.079Z,100064.47
2023-02-25T10:35:22.954Z,100085.19
2023-02-25T10:37:51.286Z,100082.91
2023-02-25T10:40:21.293Z,100076.50
2023-02-25T10:42:51.982Z,100090.09
2023-02-25T10:45:25.093Z,100098.19
2023-02-25T10:47:59.437Z,100087.97
2023-02-25T10:50:44.437Z,100088.53
2023-02-25T10:53:15.781Z,100096.91
2023-02-25T10:55:52.385Z,100099.28
2023-02-25T10:58:28.381Z,100096.81
2023-02-25T11:01:00.956Z,100095.09
2023-02-25T11:03:32.760Z,100101.41
2023-02-25T11:06:27.586Z,100095.19
2023-02-25T11:09:01.052Z,100083.94
2023-02-25T11:11:32.280Z,100088.50
2023-02-25T11:14:03.724Z,100092.34
2023-02-25T11:16:35.167Z,100110.53
2023-02-25T11:19:11.801Z,100117.72
2023-02-25T11:21:43.219Z,100128.84
2023-02-25T11:24:17.059Z,100122.88
2023-02-25T11:26:48.431Z,100130.88
2023-02-25T11:29:21.773Z,100127.81
2023-02-25T11:31:53.778Z,100135.66
2023-02-25T11:34:25.252Z,100139.53
2023-02-25T11:36:55.590Z,100146.78
2023-02-25T11:39:26.912Z,100149.81
2023-02-25T11:41:57.973Z,100144.09
2023-02-25T11:44:29.575Z,100145.44
2023-02-25T11:47:09.036Z,100150.84
2023-02-25T11:50:13.332Z,100150.50
2023-02-25T11:53:02.455Z,100145.63
2023-02-25T11:55:50.619Z,100152.44
2023-02-25T11:58:32.116Z,100148.22
2023-02-25T12:01:04.785Z,100165.09
2023-02-25T12:04:01.892Z,100165.69
2023-02-25T12:06:45.736Z,100176.00
2023-02-25T12:10:02.308Z,100178.19
2023-02-25T12:12:56.969Z,100185.13
2023-02-25T12:16:01.411Z,100184.03
2023-02-25T12:19:02.567Z,100186.50
2023-02-25T12:22:04.033Z,100194.84
2023-02-25T12:24:58.502Z,100189.28
2023-02-25T12:27:57.526Z,100207.16
2023-02-25T12:30:49.899Z,100208.38
2023-02-25T12:33:47.145Z,100210.56
2023-02-25T12:36:27.235Z,100206.31
2023-02-25T12:39:20.352Z,100198.28
2023-02-25T12:42:04.771Z,100212.19
2023-02-25T12:45:17.388Z,100209.25
2023-02-25T12:48:02.928Z,100203.41
2023-02-25T12:50:58.522Z,100218.06
2023-02-25T12:53:37.386Z,100210.16
2023-02-25T12:56:43.783Z,100219.22
2023-02-25T12:59:52.294Z,100227.19
2023-02-25T13:02:44.514Z,100222.69
2023-02-25T13:05:43.853Z,100234.28
2023-02-25T13:08:27.469Z,100236.00
2023-02-25T13:11:03.829Z,100260.38
2023-02-25T13:13:50.680Z,100248.84
2023-02-25T13:16:30.892Z,100259.38
2023-02-25T13:19:16.434Z,100269.09
2023-02-25T13:21:56.338Z,100271.00
2023-02-25T13:24:46.375Z,100265.78
2023-02-25T13:27:28.375Z,100259.06
2023-02-25T13:30:10.085Z,100253.41
2023-02-25T13:32:48.468Z,100261.88
2023-02-25T13:35:30.209Z,100269.16
2023-02-25T13:38:15.910Z,100266.75
2023-02-25T13:41:05.350Z,100273.13
2023-02-25T13:43:57.595Z,100291.03
2023-02-25T13:46:44.872Z,100274.91
2023-02-25T13:49:47.512Z,100268.00
2023-02-25T13:52:27.659Z,100278.00
2023-02-25T13:55:09.899Z,100267.16
2023-02-25T13:58:02.885Z,100281.03
2023-02-25T14:00:52.198Z,100294.38
2023-02-25T14:03:49.990Z,100285.25
2023-02-25T14:06:36.267Z,100287.63
2023-02-25T14:09:18.253Z,100293.16
2023-02-25T14:12:06.343Z,100294.00
2023-02-25T14:15:22.878Z,100301.16
2023-02-25T14:18:13.115Z,100304.09
2023-02-25T14:20:50.801Z,100302.97
2023-02-25T14:23:31.148Z,100314.28
2023-02-25T14:26:20.127Z,100316.19
2023-02-25T14:29:00.494Z,100331.63
2023-02-25T14:31:38.036Z,100323.66
2023-02-25T14:34:19.352Z,100329.69
2023-02-25T14:36:57.869Z,100328.25
2023-02-25T14:39:44.308Z,100343.28
2023-02-25T14:42:39.096Z,100338.22
2023-02-25T14:45:19.508Z,100359.47
2023-02-25T14:47:55.540Z,100361.47
2023-02-25T14:50:28.357Z,100357.97
2023-02-25T14:53:29.723Z,100369.69
2023-02-25T14:56:37.008Z,100360.97
2023-02-25T14:59:24.339Z,100371.44
2023-02-25T15:02:17.889Z,100357.31
2023-02-25T15:05:10.142Z,100368.09
2023-02-25T15:07:56.630Z,100369.03
2023-02-25T15:10:49.513Z,100380.63
2023-02-25T15:13:49.220Z,100379.63
2023-02-25T15:16:42.680Z,100394.00
2023-02-25T15:19:46.186Z,100397.13
2023-02-25T15:22:23.955Z,100403.84
2023-02-25T15:24:53.264Z,100402.09
2023-02-25T15:27:47.746Z,100399.50
2023-02-25T15:30:19.814Z,100409.84
2023-02-25T15:33:08.086Z,100412.19
2023-02-25T15:35:58.215Z,100421.06
2023-02-25T15:38:47.204Z,100420.81
2023-02-25T15:41:44.724Z,100432.03
2023-02-25T15:44:35.521Z,100433.44
2023-02-25T15:47:26.027Z,100435.44
2023-02-25T15:49:55.629Z,100429.19
2023-02-25T15:52:55.699Z,100438.72
2023-02-25T15:55:39.826Z,100455.66
2023-02-25T15:58:46.583Z,100450.13
2023-02-25T16:01:27.368Z,100447.97
2023-02-25T16:03:56.711Z,100459.31
2023-02-25T16:06:32.163Z,100456.28
2023-02-25T16:09:08.205Z,100451.88
2023-02-25T16:11:39.314Z,100457.03
2023-02-25T16:14:14.670Z,100464.47
2023-02-25T16:16:48.054Z,100469.09
2023-02-25T16:19:20.118Z,100464.84
2023-02-25T16:21:50.231Z,100471.63
2023-02-25T16:24:19.696Z,100472.84
2023-02-25T16:26:58.701Z,100479.00
2023-02-25T16:29:41.127Z,100487.19
2023-02-25T16:32:17.284Z,100494.09
2023-02-25T16:34:52.189Z,100502.34
2023-02-25T16:37:28.089Z,100504.97
2023-02-25T16:39:56.005Z,100505.13
2023-02-25T16:42:24.016Z,100511.59
2023-02-25T16:45:00.146Z,100508.69
2023-02-25T16:47:30.511Z,100517.03
2023-02-25T16:50:03.984Z,100535.72
2023-02-25T16:52:34.549Z,100530.00
2023-02-25T16:55:05.524Z,100538.47
2023-02-25T16:57:37.683Z,100544.47
2023-02-25T17:00:14.218Z,100568.66
2023-02-25T17:02:47.199Z,100559.28
2023-02-25T17:05:29.990Z,100564.66
2023-02-25T17:07:59.755Z,100555.81
2023-02-25T17:10:30.745Z,100551.66
2023-02-25T17:13:00.940Z,100556.16
2023-02-25T17:15:31.637Z,100554.53
2023-02-25T17:18:08.036Z,100563.16
2023-02-25T17:20:37.820Z,100565.44
2023-02-25T17:23:08.527Z,100580.69
2023-02-25T17:25:39.236Z,100594.38
2023-02-25T17:28:09.180Z,100587.38
2023-02-25T17:30:41.511Z,100585.16
2023-02-25T17:33:22.226Z,100590.69
2023-02-25T17:35:55.057Z,100593.88
2023-02-25T17:38:25.848Z,100584.91
2023-02-25T17:40:55.250Z,100592.72
2023-02-25T17:43:27.253Z,100596.66
2023-02-25T17:45:57.962Z,100594.66
2023-02-25T17:48:31.279Z,100600.28
2023-02-25T17:51:05.927Z,100618.03
2023-02-25T17:53:41.831Z,100621.34
2023-02-25T17:56:13.756Z,100623.03
2023-02-25T17:58:41.577Z,100621.97
2023-02-25T18:01:24.047Z,100627.53
2023-02-25T18:03:52.986Z,100624.75
2023-02-25T18:06:44.931Z,100625.59
2023-02-25T18:09:37.946Z,100642.59
2023-02-25T18:12:08.415Z,100641.69
2023-02-25T18:14:38.736Z,100653.06
2023-02-25T18:17:15.192Z,100646.84
2023-02-25T18:19:46.218Z,100651.44
2023-02-25T18:22:42.284Z,100645.66
2023-02-25T18:25:32.579Z,100655.47
2023-02-25T18:28:00.447Z,100667.22
2023-02-25T18:30:30.541Z,100660.88
2023-02-25T18:32:59.122Z,100669.50
2023-02-25T18:35:29.156Z,100667.72
2023-02-25T18:37:59.491Z,100661.38
2023-02-25T18:40:30.540Z,100682.91
2023-02-25T18:42:58.947Z,100675.84
2023-02-25T18:45:31.669Z,100688.06
2023-02-25T18:48:00.289Z,100687.22
2023-02-25T18:50:31.073Z,100689.75
2023-02-25T18:53:00.942Z,100690.00
2023-02-25T18:55:31.542Z,100690.66
2023-02-25T18:57:59.803Z,100694.38
2023-02-25T19:00:28.288Z,100696.78
2023-02-25T19:02:58.766Z,100688.09
2023-02-25T19:05:27.249Z,100688.94
2023-02-25T19:07:56.341Z,100705.66
2023-02-25T19:10:28.191Z,100701.22
2023-02-25T19:13:02.796Z,100701.28
2023-02-25T19:15:31.187Z,100697.75
2023-02-25T19:17:59.047Z,100700.38
2023-02-25T19:20:26.955Z,100701.19
2023-02-25T19:22:55.429Z,100695.97
2023-02-25T19:25:27.158Z,100711.88
2023-02-25T19:27:57.627Z,100704.75
2023-02-25T19:30:27.370Z,100712.00
2023-02-25T19:32:55.413Z,100716.34
2023-02-25T19:35:23.146Z,100715.41
2023-02-25T19:37:50.822Z,100718.44
2023-02-25T19:40:18.563Z,100722.16
2023-02-25T19:42:48.825Z,100728.47
2023-02-25T19:45:19.544Z,100721.50
2023-02-25T19:47:47.755Z,100725.28
2023-02-25T19:50:16.611Z,100739.78
2023-02-25T19:52:45.195Z,100732.34
2023-02-25T19:55:14.330Z,100731.47
2023-02-25T19:57:42.601Z,100735.38
2023-02-25T20:00:15.109Z,100746.66
2023-02-25T20:02:43.093Z,100739.34
2023-02-25T20:05:11.544Z,100742.59
2023-02-25T20:07:39.723Z,100748.69
2023-02-25T20:10:10.924Z,100753.72
2023-02-25T20:12:38.780Z,100758.31
2023-02-25T20:15:07.227Z,100750.66
2023-02-25T20:17:38.268Z,100754.78
2023-02-25T20:20:08.323Z,100763.41
2023-02-25T20:22:36.479Z,100760.19
2023-02-25T20:25:04.897Z,100763.88
2023-02-25T20:27:33.412Z,100776.66
2023-02-25T20:30:01.157Z,100781.88
2023-02-25T20:32:30.095Z,100775.84
2023-02-25T20:34:59.758Z,100784.72
2023-02-25T20:37:31.293Z,100786.50
2023-02-25T20:40:00.377Z,100794.41
2023-02-25T20:42:30.088Z,100796.09
2023-02-25T20:44:59.558Z,100796.97
2023-02-25T20:47:29.432Z,100799.44
2023-02-25T20:49:59.497Z,100806.72
2023-02-25T20:52:28.144Z,100814.56
2023-02-25T20:54:56.025Z,100813.53
2023-02-25T20:57:26.592Z,100818.91
2023-02-25T20:59:54.907Z,100817.16
2023-02-25T21:02:23.542Z,100819.63
2023-02-25T21:04:51.960Z,100821.56
2023-02-25T21:07:21.100Z,100821.34
2023-02-25T21:09:48.839Z,100818.94
2023-02-25T21:12:16.560Z,100827.72
2023-02-25T21:14:44.430Z,100832.13
2023-02-25T21:17:13.646Z,100824.22
2023-02-25T21:19:41.606Z,100840.91
2023-02-25T21:22:10.035Z,100830.38
2023-02-25T21:24:39.588Z,100841.75
2023-02-25T21:27:07.594Z,100834.69
2023-02-25T21:29:35.931Z,100833.63
2023-02-25T21:32:03.824Z,100840.88
2023-02-25T21:34:31.857Z,100847.91
2023-02-25T21:36:59.691Z,100848.78
2023-02-25T21:39:28.073Z,100857.53
2023-02-25T21:41:57.228Z,100860.97
2023-02-25T21:44:25.271Z,100858.41
2023-02-25T21:46:53.053Z,100868.84
2023-02-25T21:49:21.163Z,100875.00
2023-02-25T21:51:49.260Z,100865.44
2023-02-25T21:54:17.271Z,100875.06
2023-02-25T21:56:45.107Z,100878.53
2023-02-25T21:59:14.247Z,100880.31
2023-02-25T22:01:42.671Z,100882.03
2023-02-25T22:04:11.180Z,100876.75
2023-02-25T22:06:39.235Z,100882.84
2023-02-25T22:09:07.388Z,100878.50
2023-02-25T22:11:37.719Z,100877.59
2023-02-25T22:14:07.680Z,100876.84
2023-02-25T22:16:37.962Z,100890.72
2023-02-25T22:19:06.332Z,100899.44
2023-02-25T22:21:35.489Z,100894.34
2023-02-25T22:24:05.103Z,100892.50
2023-02-25T22:26:35.617Z,100892.56
2023-02-25T22:29:06.710Z,100896.97
2023-02-25T22:31:36.430Z,100900.50
2023-02-25T22:34:04.506Z,100903.06
2023-02-25T22:36:32.468Z,100897.88
2023-02-25T22:39:00.350Z,100897.00
2023-02-25T22:41:30.310Z,100909.16
2023-02-25T22:43:59.887Z,100906.38
2023-02-25T22:46:29.666Z,100918.81
2023-02-25T22:48:59.284Z,100924.78
2023-02-25T22:51:28.650Z,100920.16
2023-02-25T22:53:56.839Z,100923.13
2023-02-25T22:56:25.821Z,100921.47
2023-02-25T22:58:54.063Z,100933.63
2023-02-25T23:01:24.623Z,100932.81
2023-02-25T23:03:53.514Z,100946.41
2023-02-25T23:06:34.307Z,100937.97
2023-02-25T23:09:10.031Z,100939.63
2023-02-25T23:11:37.856Z,100947.53
2023-02-25T23:14:06.085Z,100943.22
2023-02-25T23:16:36.701Z,100952.00
2023-02-25T23:19:06.025Z,100953.28
2023-02-25T23:21:38.483Z,100952.75
2023-02-25T23:24:08.374Z,100950.34
2023-02-25T23:26:41.442Z,100953.84
2023-02-25T23:29:10.920Z,100963.44
2023-02-25T23:31:42.320Z,100956.41
2023-02-25T23:34:11.815Z,100961.56
2023-02-25T23:36:43.271Z,100966.47
2023-02-25T23:39:12.389Z,100981.84
2023-02-25T23:41:40.494Z,100981.25
2023-02-25T23:44:09.509Z,100978.06
2023-02-25T23:46:38.146Z,100983.31
2023-02-25T23:49:08.399Z,100985.03
2023-02-25T23:51:37.053Z,100987.75
2023-02-25T23:54:07.210Z,100993.47
2023-02-25T23:56:35.418Z,101003.88
2023-02-25T23:59:04.142Z,100999.06
